Hammond Northshore Regional Airport


Codes: KHDC/
Name: Hammond Northshore Regional Airport
City: Hammond
Country: United States
Elevation: 47 ft.

Photos at Hammond Northshore Regional Airport


   Photos courtesy of SpottingLog. You can add your own sightings and photos by signing up for a free trial today.



No photos found.

Weather at Hammond Northshore Regional Airport


Time (UTC)DescriptionTempratureWindCloud coverageVisibilityPressureHumidity
21-Jun-2024 12:00Clear Sky23°C4 mph, NE0%10000m1020hPa95%
21-Jun-2024 15:00Clear Sky25°C7 mph, E0%10000m1020hPa82%
21-Jun-2024 18:00Clear Sky30°C7 mph, E4%10000m1019hPa59%
21-Jun-2024 21:00Overcast Clouds30°C9 mph, SE87%10000m1017hPa61%
22-Jun-2024 00:00Overcast Clouds28°C4 mph, SE91%10000m1017hPa71%
22-Jun-2024 03:00Few Clouds24°C2 mph, E19%10000m1018hPa78%
22-Jun-2024 06:00Clear Sky23°C2 mph, SE9%10000m1018hPa82%
22-Jun-2024 09:00Clear Sky22°C2 mph, NE0%10000m1017hPa82%
22-Jun-2024 12:00Clear Sky23°C2 mph, NE0%10000m1018hPa81%
22-Jun-2024 15:00Clear Sky30°C4 mph, NE0%10000m1018hPa51%
22-Jun-2024 18:00Clear Sky35°C4 mph, SE0%10000m1016hPa34%
22-Jun-2024 21:00Clear Sky35°C9 mph, S0%10000m1014hPa35%
23-Jun-2024 00:00Clear Sky30°C4 mph, S3%10000m1014hPa56%
23-Jun-2024 03:00Scattered Clouds26°C4 mph, SE36%10000m1015hPa74%
23-Jun-2024 06:00Broken Clouds24°C4 mph, SW56%10000m1016hPa93%
23-Jun-2024 09:00Scattered Clouds23°C2 mph, W29%10000m1015hPa96%
23-Jun-2024 12:00Scattered Clouds24°C0 mph, NW31%10000m1015hPa91%
23-Jun-2024 15:00Scattered Clouds32°C2 mph, S27%10000m1016hPa60%
23-Jun-2024 18:00Few Clouds36°C2 mph, SE19%10000m1014hPa41%
23-Jun-2024 21:00Few Clouds35°C9 mph, S13%10000m1012hPa38%
24-Jun-2024 00:00Few Clouds30°C4 mph, S22%10000m1012hPa52%
24-Jun-2024 03:00Scattered Clouds27°C4 mph, SW39%10000m1013hPa82%
24-Jun-2024 06:00Few Clouds24°C4 mph, SW19%10000m1014hPa93%
24-Jun-2024 09:00Clear Sky23°C4 mph, SW2%10000m1014hPa97%
24-Jun-2024 12:00Clear Sky24°C2 mph, W4%10000m1014hPa92%
24-Jun-2024 15:00Clear Sky32°C2 mph, SW1%10000m1015hPa59%
24-Jun-2024 18:00Clear Sky36°C4 mph, S1%10000m1014hPa41%
24-Jun-2024 21:00Clear Sky36°C9 mph, S2%10000m1012hPa37%
25-Jun-2024 00:00Clear Sky31°C9 mph, S1%10000m1012hPa63%
25-Jun-2024 03:00Clear Sky26°C4 mph, SW0%10000m1013hPa83%
25-Jun-2024 06:00Clear Sky25°C4 mph, SW0%10000m1013hPa90%
25-Jun-2024 09:00Clear Sky23°C2 mph, SW2%10000m1013hPa98%
25-Jun-2024 12:00Clear Sky25°C2 mph, SW8%10000m1015hPa93%
25-Jun-2024 15:00Clear Sky31°C4 mph, S1%10000m1015hPa58%
25-Jun-2024 18:00Clear Sky34°C7 mph, S1%10000m1014hPa46%
25-Jun-2024 21:00Scattered Clouds34°C11 mph, S27%10000m1012hPa47%
26-Jun-2024 00:00Broken Clouds30°C7 mph, SW65%10000m1012hPa67%
26-Jun-2024 03:00Few Clouds27°C7 mph, SW17%10000m1013hPa79%
26-Jun-2024 06:00Clear Sky24°C4 mph, SW9%10000m1014hPa94%
26-Jun-2024 09:00Scattered Clouds24°C4 mph, SW25%10000m1012hPa97%